Time;durP1;ratioP1;P1;durP2;ratioP2;P2;SDS_P1;SDS_P2;PMS_P1;PMS_P2;Temp;Humidity;BMP_temperature;BMP_pressure;BME280_temperature;BME280_humidity;BME280_pressure;Samples;Min_cycle;Max_cycle;Signal;HPM_P1;HPM_P2
2022/11/13 00:01:24;;;;;;;35.47;24.52;;;;;;;5.96;100.00;102850.84;5048248;28;20040;-73
2022/11/13 00:03:50;;;;;;;40.22;23.58;;;;;;;5.96;100.00;102846.31;5045785;28;20077;-73
2022/11/13 00:06:16;;;;;;;38.83;23.60;;;;;;;5.99;100.00;102856.91;5044100;28;20443;-72
2022/11/13 00:08:43;;;;;;;38.00;23.17;;;;;;;5.94;100.00;102848.25;5032264;28;20468;-73
2022/11/13 00:11:13;;;;;;;33.17;22.00;;;;;;;5.95;100.00;102844.56;5045795;28;20127;-72
2022/11/13 00:13:39;;;;;;;37.25;23.83;;;;;;;6.01;100.00;102844.09;5029172;28;20029;-72
2022/11/13 00:16:08;;;;;;;36.28;23.60;;;;;;;6.06;100.00;102838.28;5027611;28;20111;-72
2022/11/13 00:18:35;;;;;;;33.15;22.25;;;;;;;6.05;100.00;102833.84;5048726;28;20502;-73
2022/11/13 00:21:12;;;;;;;36.78;22.60;;;;;;;6.10;100.00;102828.91;5047377;28;20017;-72
2022/11/13 00:23:37;;;;;;;37.67;23.02;;;;;;;6.08;100.00;102814.56;5042817;28;20041;-73
2022/11/13 00:26:08;;;;;;;38.05;22.27;;;;;;;6.06;100.00;102820.13;5041464;28;20036;-72
2022/11/13 00:28:33;;;;;;;32.47;23.95;;;;;;;6.07;100.00;102816.41;5021357;28;20374;-72
2022/11/13 00:31:00;;;;;;;35.90;23.10;;;;;;;6.09;100.00;102817.13;5031753;28;20319;-72
2022/11/13 00:33:26;;;;;;;;;;;;;;;6.11;100.00;102809.75;5028095;28;20426;-72
2022/11/13 00:35:51;;;;;;;31.27;21.45;;;;;;;6.07;100.00;102807.38;5047322;28;19942;-72
2022/11/13 00:38:17;;;;;;;35.25;22.70;;;;;;;6.07;100.00;102801.94;5045089;28;20472;-73
2022/11/13 00:40:42;;;;;;;33.58;23.05;;;;;;;6.03;100.00;102795.88;5047828;28;20055;-73
2022/11/13 00:43:07;;;;;;;30.05;20.88;;;;;;;5.99;100.00;102796.25;5045297;28;20037;-73
2022/11/13 00:45:32;;;;;;;36.67;23.67;;;;;;;5.97;100.00;102785.47;5046998;28;20041;-73
2022/11/13 00:47:58;;;;;;;30.38;21.85;;;;;;;5.90;100.00;102776.06;5044388;28;20071;-74
2022/11/13 00:50:23;;;;;;;33.42;21.85;;;;;;;5.89;100.00;102773.47;5047835;28;20037;-73
2022/11/13 00:52:48;;;;;;;33.42;20.77;;;;;;;5.84;100.00;102770.25;5031529;28;20033;-73
2022/11/13 00:55:14;;;;;;;32.00;21.60;;;;;;;5.80;100.00;102766.91;5044335;28;20029;-73
2022/11/13 00:57:39;;;;;;;35.20;21.48;;;;;;;5.77;100.00;102763.53;5040601;28;20021;-73
2022/11/13 01:00:05;;;;;;;32.05;22.45;;;;;;;5.70;100.00;102770.41;5045330;28;20025;-73
2022/11/13 01:02:30;;;;;;;32.70;21.48;;;;;;;5.66;100.00;102771.66;5044193;28;20034;-73
2022/11/13 01:04:55;;;;;;;34.55;21.92;;;;;;;5.61;100.00;102779.28;5044091;28;20037;-73
2022/11/13 01:07:21;;;;;;;32.38;22.17;;;;;;;5.60;100.00;102777.56;5044873;28;20026;-73
2022/11/13 01:09:50;;;;;;;34.85;21.67;;;;;;;5.60;100.00;102769.41;5047096;28;20051;-73
2022/11/13 01:12:16;;;;;;;31.90;21.55;;;;;;;5.54;100.00;102773.44;5039402;28;20075;-73
2022/11/13 01:14:42;;;;;;;34.97;21.48;;;;;;;5.50;100.00;102768.38;5027085;28;20021;-73
2022/11/13 01:17:07;;;;;;;33.85;21.65;;;;;;;5.46;100.00;102775.88;5047138;28;20021;-72
2022/11/13 01:19:33;;;;;;;30.45;20.15;;;;;;;5.42;100.00;102771.69;5049243;28;20048;-73
2022/11/13 01:21:58;;;;;;;34.13;21.15;;;;;;;5.47;100.00;102774.03;5046794;28;20109;-73
2022/11/13 01:24:23;;;;;;;24.15;16.25;;;;;;;5.42;100.00;102768.97;5042553;28;20125;-73
2022/11/13 01:26:49;;;;;;;32.80;21.95;;;;;;;5.38;100.00;102782.88;5043164;28;20033;-73
2022/11/13 01:29:14;;;;;;;31.83;21.23;;;;;;;5.36;100.00;102768.56;5043084;28;20075;-73
2022/11/13 01:31:39;;;;;;;30.95;20.50;;;;;;;5.30;100.00;102758.16;5046432;28;20115;-73
2022/11/13 01:34:05;;;;;;;31.50;20.02;;;;;;;5.28;100.00;102761.00;5028353;28;20025;-72
2022/11/13 01:36:30;;;;;;;38.15;21.20;;;;;;;5.25;100.00;102747.66;5045531;28;20055;-72
2022/11/13 01:38:56;;;;;;;30.63;20.33;;;;;;;5.25;100.00;102747.66;5028083;28;20032;-72
2022/11/13 01:41:28;;;;;;;34.38;20.38;;;;;;;5.25;100.00;102741.34;5048584;28;20029;-72
2022/11/13 01:43:54;;;;;;;32.20;19.67;;;;;;;5.20;100.00;102735.38;5042405;28;20392;-72
2022/11/13 01:46:34;;;;;;;29.35;19.95;;;;;;;5.21;100.00;102738.00;5046399;28;20028;-72
2022/11/13 01:49:08;;;;;;;26.85;19.45;;;;;;;5.19;100.00;102741.81;5046483;28;20087;-72
2022/11/13 01:51:54;;;;;;;28.35;19.23;;;;;;;5.15;100.00;102734.88;5030699;28;20044;-72
2022/11/13 01:54:22;;;;;;;29.90;18.90;;;;;;;5.18;100.00;102738.22;5042284;28;20033;-72
2022/11/13 01:56:48;;;;;;;29.45;20.13;;;;;;;5.20;100.00;102729.97;5044335;28;20020;-72
2022/11/13 01:59:20;;;;;;;27.25;17.73;;;;;;;5.21;100.00;102732.56;5038714;28;20384;-72
2022/11/13 02:01:46;;;;;;;27.65;18.05;;;;;;;5.19;100.00;102723.66;5044077;28;20036;-72
2022/11/13 02:04:11;;;;;;;23.08;16.83;;;;;;;5.29;100.00;102727.41;5043588;28;20029;-72
2022/11/13 02:06:43;;;;;;;25.50;15.15;;;;;;;5.41;100.00;102712.00;5046128;28;20036;-73
2022/11/13 02:09:11;;;;;;;26.52;15.10;;;;;;;5.48;100.00;102715.97;5043653;28;20035;-73
2022/11/13 02:11:37;;;;;;;18.92;14.48;;;;;;;5.52;100.00;102709.31;5040475;28;20132;-72
2022/11/13 02:14:03;;;;;;;23.15;15.10;;;;;;;5.47;100.00;102712.41;5044648;28;20032;-72
2022/11/13 02:16:32;;;;;;;19.00;14.23;;;;;;;5.46;100.00;102705.22;5042283;28;20030;-73
2022/11/13 02:18:58;;;;;;;21.23;14.73;;;;;;;5.43;100.00;102701.88;5043075;28;20080;-72
2022/11/13 02:21:52;;;;;;;24.40;15.20;;;;;;;5.35;100.00;102691.59;5043928;28;20091;-73
2022/11/13 02:24:20;;;;;;;22.85;13.98;;;;;;;5.27;100.00;102693.19;5019612;28;20048;-72
2022/11/13 02:26:48;;;;;;;18.33;13.75;;;;;;;5.19;100.00;102685.63;5041046;28;20036;-72
2022/11/13 02:29:13;;;;;;;19.65;13.10;;;;;;;5.15;100.00;102697.72;5022977;28;20021;-73
2022/11/13 02:31:39;;;;;;;25.65;13.60;;;;;;;5.08;100.00;102699.16;5041625;28;20369;-72
2022/11/13 02:34:04;;;;;;;21.58;13.90;;;;;;;5.09;100.00;102691.88;5044775;28;20033;-72
2022/11/13 02:36:30;;;;;;;17.85;12.77;;;;;;;5.06;100.00;102697.53;5040669;28;20052;-72
2022/11/13 02:38:58;;;;;;;17.73;13.40;;;;;;;5.02;100.00;102698.78;5042501;28;20021;-72
2022/11/13 02:41:24;;;;;;;22.02;14.77;;;;;;;4.99;100.00;102702.59;5040453;28;20058;-72
2022/11/13 02:43:49;;;;;;;20.50;13.45;;;;;;;4.96;100.00;102710.97;5028513;28;20436;-72
2022/11/13 02:46:14;;;;;;;19.13;14.13;;;;;;;4.91;100.00;102699.56;5028171;28;20021;-72
2022/11/13 02:48:40;;;;;;;22.45;13.27;;;;;;;4.92;100.00;102701.31;5026409;28;20115;-72
2022/11/13 02:51:05;;;;;;;24.75;13.40;;;;;;;4.90;100.00;102697.84;5046231;28;20059;-72
2022/11/13 02:53:30;;;;;;;21.67;13.27;;;;;;;4.83;100.00;102698.41;5045719;28;20108;-72
2022/11/13 02:55:56;;;;;;;21.58;13.18;;;;;;;4.81;100.00;102694.97;5039251;28;20045;-72
2022/11/13 02:58:21;;;;;;;19.85;13.13;;;;;;;4.79;100.00;102683.34;5041559;28;20037;-72
2022/11/13 03:00:46;;;;;;;18.20;12.80;;;;;;;4.78;100.00;102677.06;5042669;28;20036;-72
2022/11/13 03:03:12;;;;;;;21.30;13.30;;;;;;;4.79;100.00;102678.78;5045453;28;20033;-72
2022/11/13 03:05:37;;;;;;;23.58;12.88;;;;;;;4.77;100.00;102675.34;5027038;28;20115;-72
2022/11/13 03:08:02;;;;;;;16.67;12.27;;;;;;;4.77;100.00;102683.47;5042889;28;20021;-72
2022/11/13 03:10:28;;;;;;;21.58;13.15;;;;;;;4.79;100.00;102669.75;5036909;28;20033;-72
2022/11/13 03:12:53;;;;;;;20.50;12.77;;;;;;;4.73;100.00;102671.13;5026930;28;20037;-72
2022/11/13 03:15:18;;;;;;;30.05;12.80;;;;;;;4.70;100.00;102673.19;5038472;28;20427;-72
2022/11/13 03:17:44;;;;;;;19.40;12.75;;;;;;;4.62;100.00;102667.47;5043017;28;20032;-72
2022/11/13 03:20:09;;;;;;;18.20;12.40;;;;;;;4.65;100.00;102668.09;5020543;28;20037;-72
2022/11/13 03:22:35;;;;;;;19.98;12.73;;;;;;;4.60;100.00;102672.16;5044857;28;20037;-72
2022/11/13 03:25:00;;;;;;;19.35;12.40;;;;;;;4.64;100.00;102679.09;5042172;28;20025;-72
2022/11/13 03:27:26;;;;;;;17.10;11.52;;;;;;;4.61;100.00;102677.47;5043257;28;20033;-72
2022/11/13 03:29:51;;;;;;;20.77;11.57;;;;;;;4.61;100.00;102679.31;5044312;28;20021;-72
2022/11/13 03:32:16;;;;;;;18.58;11.63;;;;;;;4.65;100.00;102686.25;5044133;28;20090;-72
2022/11/13 03:34:41;;;;;;;22.75;12.15;;;;;;;4.62;100.00;102689.16;5044314;28;20029;-72
2022/11/13 03:37:07;;;;;;;15.73;12.18;;;;;;;4.61;100.00;102682.91;5024072;28;20075;-72
2022/11/13 03:39:32;;;;;;;18.40;12.32;;;;;;;4.56;100.00;102681.47;5028369;28;20098;-72
2022/11/13 03:41:58;;;;;;;15.73;11.30;;;;;;;4.52;100.00;102682.69;5044347;28;20502;-72
2022/11/13 03:44:23;;;;;;;19.35;11.68;;;;;;;4.50;100.00;102679.22;5043116;28;20025;-72
2022/11/13 03:46:48;;;;;;;15.88;11.52;;;;;;;4.50;100.00;102679.22;5044991;28;20033;-72
2022/11/13 03:49:14;;;;;;;18.55;11.25;;;;;;;4.51;100.00;102689.09;5044176;28;20478;-72
2022/11/13 03:51:39;;;;;;;19.25;12.75;;;;;;;4.51;100.00;102675.53;5046119;28;20166;-72
2022/11/13 03:54:05;;;;;;;20.02;12.07;;;;;;;4.51;100.00;102670.09;5027686;28;20116;-72
2022/11/13 03:56:30;;;;;;;16.23;11.73;;;;;;;4.49;100.00;102666.66;5041965;28;20120;-72
2022/11/13 03:58:55;;;;;;;19.40;11.98;;;;;;;4.44;100.00;102664.25;5022599;28;20042;-72
2022/11/13 04:01:21;;;;;;;19.98;11.10;;;;;;;4.45;100.00;102663.31;5026523;28;20397;-72
2022/11/13 04:03:46;;;;;;;16.52;12.40;;;;;;;4.39;100.00;102660.16;5041882;28;20556;-72
2022/11/13 04:06:13;;;;;;;17.30;11.40;;;;;;;4.41;100.00;102658.19;5040561;28;20083;-72
2022/11/13 04:08:38;;;;;;;20.85;12.15;;;;;;;4.39;100.00;102655.59;5040355;28;20029;-72
2022/11/13 04:11:08;;;;;;;15.75;11.32;;;;;;;4.43;100.00;102657.09;5048414;28;20044;-72
2022/11/13 04:13:34;;;;;;;14.85;10.75;;;;;;;4.45;100.00;102655.16;5044828;28;20123;-72
2022/11/13 04:15:59;;;;;;;17.55;11.60;;;;;;;4.49;100.00;102644.94;5028280;28;20045;-72
2022/11/13 04:18:24;;;;;;;17.08;12.30;;;;;;;4.51;100.00;102641.16;5045406;28;20537;-72
2022/11/13 04:20:50;;;;;;;18.00;11.52;;;;;;;4.53;100.00;102639.16;5040267;28;20493;-72
2022/11/13 04:23:16;;;;;;;16.42;11.80;;;;;;;4.52;100.00;102636.56;5045906;28;20033;-72
2022/11/13 04:25:42;;;;;;;18.55;10.75;;;;;;;4.51;100.00;102638.44;5050465;28;20048;-72
2022/11/13 04:28:09;;;;;;;15.95;11.23;;;;;;;4.50;100.00;102627.69;5045167;28;20040;-72
2022/11/13 04:30:35;;;;;;;20.83;11.55;;;;;;;4.50;100.00;102624.97;5027558;28;20029;-72
2022/11/13 04:33:00;;;;;;;16.00;11.10;;;;;;;4.50;100.00;102635.81;5043525;28;20033;-72
2022/11/13 04:35:25;;;;;;;18.35;11.25;;;;;;;4.46;100.00;102637.91;5046927;28;20136;-72
2022/11/13 04:37:51;;;;;;;14.50;11.43;;;;;;;4.44;100.00;102639.00;5046264;28;20028;-72
2022/11/13 04:40:17;;;;;;;16.95;11.68;;;;;;;4.41;100.00;102629.25;5043142;28;20036;-72
2022/11/13 04:42:48;;;;;;;14.27;10.85;;;;;;;4.43;100.00;102629.13;5046017;28;20515;-72
2022/11/13 04:45:18;;;;;;;16.83;10.48;;;;;;;4.40;100.00;102623.91;5045837;28;20428;-72
2022/11/13 04:47:44;;;;;;;19.75;10.70;;;;;;;4.34;100.00;102641.50;5047014;28;20025;-72
2022/11/13 04:50:10;;;;;;;16.05;11.40;;;;;;;4.29;100.00;102632.88;5042714;28;20483;-72
2022/11/13 04:52:36;;;;;;;14.57;10.27;;;;;;;4.26;100.00;102629.50;5029485;28;20366;-72
2022/11/13 04:55:01;;;;;;;19.55;10.55;;;;;;;4.26;100.00;102627.66;5046746;28;20032;-72
2022/11/13 04:57:26;;;;;;;16.58;10.45;;;;;;;4.21;100.00;102634.38;5044848;28;20072;-72
2022/11/13 04:59:52;;;;;;;13.82;10.07;;;;;;;4.18;100.00;102640.06;5045824;28;20083;-72
2022/11/13 05:02:17;;;;;;;14.25;9.80;;;;;;;4.10;100.00;102639.72;5041262;28;20322;-72
2022/11/13 05:04:42;;;;;;;18.38;10.75;;;;;;;4.10;100.00;102634.31;5028846;28;20485;-72
2022/11/13 05:07:08;;;;;;;15.25;10.90;;;;;;;4.08;100.00;102633.56;5026038;28;20028;-72
2022/11/13 05:09:33;;;;;;;13.85;10.85;;;;;;;4.04;100.00;102637.47;5048210;28;20086;-72
2022/11/13 05:11:58;;;;;;;17.80;10.30;;;;;;;4.01;100.00;102630.44;5045607;28;20107;-72
2022/11/13 05:14:24;;;;;;;19.13;11.18;;;;;;;4.00;100.00;102625.13;5041988;28;20043;-72
2022/11/13 05:16:50;;;;;;;17.48;10.90;;;;;;;4.02;100.00;102634.03;5022713;28;20029;-72
2022/11/13 05:19:16;;;;;;;20.40;12.52;;;;;;;4.00;100.00;102631.41;5044075;28;20070;-72
2022/11/13 05:21:41;;;;;;;16.88;11.35;;;;;;;3.96;100.00;102624.47;5045066;28;20556;-72
2022/11/13 05:24:09;;;;;;;18.25;11.82;;;;;;;3.99;100.00;102613.41;5046013;28;20033;-72
2022/11/13 05:26:36;;;;;;;17.95;10.55;;;;;;;3.99;100.00;102608.00;5045795;28;20135;-72
2022/11/13 05:29:02;;;;;;;18.65;11.15;;;;;;;4.00;100.00;102600.75;5044562;28;20028;-72
2022/11/13 05:31:27;;;;;;;18.75;11.35;;;;;;;3.95;100.00;102597.50;5043636;28;20021;-72
2022/11/13 05:33:53;;;;;;;17.25;10.73;;;;;;;4.00;100.00;102592.63;5047463;28;20472;-72
2022/11/13 05:36:20;;;;;;;17.38;10.45;;;;;;;3.96;100.00;102589.22;5043080;28;20021;-72
2022/11/13 05:38:45;;;;;;;15.52;8.52;;;;;;;3.94;100.00;102587.63;5046078;28;20060;-72
2022/11/13 05:41:15;;;;;;;14.15;10.63;;;;;;;3.90;100.00;102580.72;5043497;28;20109;-72
2022/11/13 05:43:41;;;;;;;19.15;11.00;;;;;;;3.86;100.00;102587.31;5044300;28;20027;-72
2022/11/13 05:46:11;;;;;;;18.20;11.38;;;;;;;3.90;100.00;102584.25;5036063;28;20572;-72
2022/11/13 05:48:37;;;;;;;18.60;11.63;;;;;;;3.87;100.00;102575.50;5041469;28;20512;-72
2022/11/13 05:51:14;;;;;;;13.27;11.10;;;;;;;3.84;100.00;102581.16;5029907;28;20110;-72
2022/11/13 05:53:40;;;;;;;19.05;11.10;;;;;;;3.83;100.00;102588.41;5044995;28;20400;-73
2022/11/13 05:56:09;;;;;;;18.02;11.40;;;;;;;3.82;100.00;102596.66;5040959;28;20034;-71
2022/11/13 05:58:35;;;;;;;21.17;11.93;;;;;;;3.81;100.00;102582.25;5045598;28;20111;-75
2022/11/13 06:01:24;;;;;;;15.27;11.33;;;;;;;3.85;100.00;102577.47;5040616;28;20507;-74
2022/11/13 06:03:50;;;;;;;24.00;11.25;;;;;;;3.87;100.00;102576.38;5044615;28;20031;-72
2022/11/13 06:06:18;;;;;;;19.88;12.13;;;;;;;3.96;100.00;102572.13;5045666;28;20024;-71
2022/11/13 06:08:46;;;;;;;19.35;12.05;;;;;;;4.03;100.00;102568.84;5037872;28;20036;-71
2022/11/13 06:11:17;;;;;;;16.95;12.00;;;;;;;4.07;100.00;102561.34;5043647;28;20068;-72
2022/11/13 06:13:42;;;;;;;17.48;11.65;;;;;;;4.04;100.00;102548.00;5022411;28;20033;-71
2022/11/13 06:16:13;;;;;;;20.10;11.48;;;;;;;4.00;100.00;102550.09;5022851;28;20025;-71
2022/11/13 06:18:40;;;;;;;19.10;11.70;;;;;;;3.98;100.00;102564.72;5042819;28;20083;-71
2022/11/13 06:21:11;;;;;;;17.85;11.80;;;;;;;3.94;100.00;102560.50;5047435;28;20527;-71
2022/11/13 06:23:38;;;;;;;20.63;11.43;;;;;;;3.96;100.00;102555.84;5044535;28;20047;-71
2022/11/13 06:26:10;;;;;;;20.83;12.23;;;;;;;3.93;100.00;102559.66;5022685;28;20040;-71
2022/11/13 06:28:36;;;;;;;16.08;11.00;;;;;;;3.89;100.00;102563.56;5043915;28;20044;-71
2022/11/13 06:31:06;;;;;;;17.50;11.20;;;;;;;3.84;100.00;102559.47;5045877;28;20024;-72
2022/11/13 06:33:32;;;;;;;17.88;12.13;;;;;;;3.78;100.00;102559.91;5025125;28;20045;-72
2022/11/13 06:36:01;;;;;;;20.30;12.55;;;;;;;3.75;100.00;102549.31;5026685;28;20120;-72
2022/11/13 06:38:29;;;;;;;17.33;11.88;;;;;;;3.74;100.00;102534.88;5043962;28;20500;-72
2022/11/13 06:40:56;;;;;;;17.92;11.57;;;;;;;3.76;100.00;102538.34;5046195;28;20393;-72
2022/11/13 06:43:21;;;;;;;20.98;11.90;;;;;;;3.75;100.00;102538.47;5024016;28;20040;-72
2022/11/13 06:45:47;;;;;;;20.92;11.50;;;;;;;3.75;100.00;102539.31;5042944;28;20029;-71
2022/11/13 06:48:12;;;;;;;16.83;11.73;;;;;;;3.70;100.00;102536.06;5039656;28;20029;-73
2022/11/13 06:50:37;;;;;;;20.48;11.90;;;;;;;3.67;100.00;102546.28;5040628;28;20406;-72
2022/11/13 06:53:02;;;;;;;18.60;10.70;;;;;;;3.65;100.00;102540.09;5039870;28;20132;-72
2022/11/13 06:55:28;;;;;;;17.08;11.45;;;;;;;3.61;100.00;102546.72;5038886;28;20098;-73
2022/11/13 06:57:53;;;;;;;17.13;11.50;;;;;;;3.65;100.00;102548.25;5021858;28;20120;-73
2022/11/13 07:00:19;;;;;;;21.55;11.55;;;;;;;3.63;100.00;102550.22;5041351;28;20480;-73
2022/11/13 07:02:48;;;;;;;20.02;11.95;;;;;;;3.60;100.00;102543.16;5042103;28;20108;-72
2022/11/13 07:05:13;;;;;;;17.02;11.68;;;;;;;3.58;100.00;102544.25;5036058;28;20049;-73
2022/11/13 07:07:38;;;;;;;17.30;11.48;;;;;;;3.63;100.00;102539.38;5039651;28;20130;-73
2022/11/13 07:10:04;;;;;;;18.98;11.75;;;;;;;3.62;100.00;102527.66;5041891;28;20033;-73
2022/11/13 07:12:29;;;;;;;19.17;13.07;;;;;;;3.67;100.00;102530.91;5042987;28;20030;-73
2022/11/13 07:14:55;;;;;;;14.15;10.45;;;;;;;3.72;100.00;102535.97;5041504;28;20032;-73
2022/11/13 07:17:20;;;;;;;17.67;11.60;;;;;;;3.77;100.00;102526.53;5027694;28;20473;-73
2022/11/13 07:19:45;;;;;;;19.02;12.15;;;;;;;3.82;100.00;102529.78;5040307;28;20041;-73
2022/11/13 07:22:10;;;;;;;18.10;11.57;;;;;;;3.81;100.00;102540.72;5044257;28;20083;-73
2022/11/13 07:24:36;;;;;;;17.55;10.75;;;;;;;3.82;100.00;102534.31;5042946;28;20484;-73
2022/11/13 07:27:01;;;;;;;17.88;11.48;;;;;;;3.82;100.00;102537.91;5040207;28;20067;-73
2022/11/13 07:29:26;;;;;;;22.67;11.65;;;;;;;3.82;100.00;102537.91;5029833;28;20513;-73
2022/11/13 07:31:52;;;;;;;17.35;11.90;;;;;;;3.78;100.00;102521.97;5044125;28;20025;-73
2022/11/13 07:34:17;;;;;;;17.90;11.23;;;;;;;3.83;100.00;102533.31;5045118;28;20461;-73
2022/11/13 07:36:43;;;;;;;25.55;11.40;;;;;;;3.82;100.00;102539.72;5045663;28;20033;-73
2022/11/13 07:39:08;;;;;;;17.60;11.57;;;;;;;3.84;100.00;102540.50;5041645;28;20440;-73
2022/11/13 07:41:33;;;;;;;21.00;11.05;;;;;;;3.89;100.00;102527.47;5047569;28;20064;-73
2022/11/13 07:43:59;;;;;;;18.88;10.75;;;;;;;3.97;100.00;102544.03;5047255;28;20480;-73
2022/11/13 07:46:24;;;;;;;24.65;11.95;;;;;;;4.02;100.00;102533.72;5049299;28;20025;-73
2022/11/13 07:48:49;;;;;;;16.35;10.85;;;;;;;4.06;100.00;102527.09;5045747;28;20036;-73
2022/11/13 07:51:14;;;;;;;18.73;10.93;;;;;;;4.05;100.00;102528.03;5030476;28;20120;-73
2022/11/13 07:53:40;;;;;;;18.77;11.80;;;;;;;4.12;100.00;102524.75;5048356;28;20078;-73
2022/11/13 07:56:06;;;;;;;16.20;10.98;;;;;;;4.23;100.00;102532.94;5043371;28;20034;-72
2022/11/13 07:58:31;;;;;;;16.77;10.63;;;;;;;4.27;100.00;102530.91;5048105;28;20041;-73
2022/11/13 08:01:04;;;;;;;20.48;12.25;;;;;;;4.42;100.00;102536.03;5049530;28;20052;-73
2022/11/13 08:03:30;;;;;;;23.80;13.02;;;;;;;4.53;100.00;102535.19;5045071;28;20065;-73
2022/11/13 08:06:04;;;;;;;17.63;10.93;;;;;;;4.69;100.00;102543.88;5029889;28;20539;-73
2022/11/13 08:08:29;;;;;;;17.70;11.20;;;;;;;4.78;100.00;102532.31;5047064;28;20029;-73
2022/11/13 08:10:55;;;;;;;21.70;11.68;;;;;;;4.88;100.00;102538.78;5034198;28;20365;-73
2022/11/13 08:13:20;;;;;;;17.10;11.07;;;;;;;5.01;100.00;102528.66;5048679;28;20043;-73
2022/11/13 08:15:45;;;;;;;17.80;11.38;;;;;;;5.22;100.00;102532.41;5043079;28;20033;-73
2022/11/13 08:18:11;;;;;;;15.77;11.93;;;;;;;5.32;100.00;102536.13;5023683;28;20032;-73
2022/11/13 08:20:36;;;;;;;15.55;11.02;;;;;;;5.42;100.00;102534.41;5029292;28;20081;-73
2022/11/13 08:23:03;;;;;;;17.02;11.98;;;;;;;5.54;100.00;102527.97;5042793;28;20035;-73
2022/11/13 08:25:29;;;;;;;;;;;;;;;5.67;100.00;102528.72;5041654;28;20033;-73
2022/11/13 08:27:55;;;;;;;19.42;11.57;;;;;;;5.79;100.00;102522.28;5042788;28;20400;-73
2022/11/13 08:30:23;;;;;;;17.40;12.23;;;;;;;5.89;100.00;102526.88;5039149;28;20033;-73
2022/11/13 08:32:51;;;;;;;17.90;11.45;;;;;;;5.94;100.00;102532.78;5046190;28;20048;-73
2022/11/13 08:35:17;;;;;;;16.73;12.18;;;;;;;6.01;100.00;102533.16;5032878;28;20024;-73
2022/11/13 08:37:42;;;;;;;17.63;11.93;;;;;;;6.10;100.00;102529.69;5046731;28;20129;-73
2022/11/13 08:40:08;;;;;;;15.68;11.82;;;;;;;6.20;100.00;102530.66;5030003;28;20014;-73
2022/11/13 08:42:34;;;;;;;22.90;14.02;;;;;;;6.36;100.00;102536.53;5044026;28;20034;-73
2022/11/13 08:44:59;;;;;;;51.72;33.95;;;;;;;6.36;100.00;102534.66;5044988;28;20389;-73
2022/11/13 08:47:27;;;;;;;173.88;84.65;;;;;;;6.41;100.00;102531.56;5043335;28;20389;-73
2022/11/13 08:49:53;;;;;;;58.72;30.20;;;;;;;6.52;100.00;102523.34;5033442;28;20495;-73
2022/11/13 08:52:18;;;;;;;35.72;18.45;;;;;;;6.57;100.00;102526.56;5041133;28;20029;-73
2022/11/13 08:54:44;;;;;;;25.75;16.00;;;;;;;6.54;100.00;102518.63;5047039;28;20052;-73
2022/11/13 08:57:09;;;;;;;22.58;15.20;;;;;;;6.64;100.00;102517.72;5044322;28;20024;-73
2022/11/13 08:59:34;;;;;;;24.25;13.38;;;;;;;6.69;100.00;102514.59;5043643;28;20028;-73
2022/11/13 09:02:00;;;;;;;18.52;11.23;;;;;;;6.77;100.00;102506.63;5046890;28;20400;-73
2022/11/13 09:04:25;;;;;;;16.60;12.13;;;;;;;6.93;100.00;102509.75;5040335;28;20033;-73
2022/11/13 09:06:51;;;;;;;21.45;12.27;;;;;;;7.07;100.00;102498.53;5047551;28;20104;-73
2022/11/13 09:09:18;;;;;;;18.75;12.60;;;;;;;7.08;100.00;102498.41;5043439;28;20029;-73
2022/11/13 09:11:44;;;;;;;19.33;11.85;;;;;;;7.24;100.00;102500.63;5045049;28;20037;-73
2022/11/13 09:14:09;;;;;;;18.23;11.43;;;;;;;7.41;99.47;102497.25;5041241;28;20033;-70
2022/11/13 09:16:34;;;;;;;16.90;10.93;;;;;;;7.63;99.81;102491.63;5025785;28;20520;-73
2022/11/13 09:19:00;;;;;;;23.55;11.80;;;;;;;7.60;99.50;102502.81;5047995;28;20112;-73
2022/11/13 09:21:26;;;;;;;16.75;10.85;;;;;;;7.58;100.00;102493.91;5045687;28;20036;-73
2022/11/13 09:23:51;;;;;;;12.75;10.27;;;;;;;7.80;97.85;102497.28;5032370;28;20056;-71
2022/11/13 09:26:17;;;;;;;16.63;10.40;;;;;;;7.92;97.85;102495.31;5045262;28;20025;-71
2022/11/13 09:28:42;;;;;;;14.13;10.02;;;;;;;7.99;97.05;102489.16;5030685;28;20083;-72
2022/11/13 09:31:08;;;;;;;15.10;9.80;;;;;;;7.99;97.91;102483.69;5029973;28;20025;-72
2022/11/13 09:33:33;;;;;;;14.77;10.15;;;;;;;8.11;96.54;102476.25;5044495;28;20155;-71
2022/11/13 09:35:59;;;;;;;13.02;10.23;;;;;;;8.29;95.70;102483.63;5045535;28;20104;-73
2022/11/13 09:38:25;;;;;;;14.70;10.32;;;;;;;8.28;96.27;102479.16;5044484;28;20519;-71
2022/11/13 09:41:02;;;;;;;15.30;9.93;;;;;;;8.38;95.64;102479.19;5045710;28;20106;-71
2022/11/13 09:43:35;;;;;;;12.73;9.57;;;;;;;8.56;94.68;102478.31;5046000;28;20094;-71
2022/11/13 09:46:06;;;;;;;13.57;9.45;;;;;;;8.70;94.58;102485.22;5041787;28;20242;-72
2022/11/13 09:48:42;;;;;;;13.35;10.35;;;;;;;8.97;92.96;102471.66;5047846;28;20033;-72
2022/11/13 09:51:21;;;;;;;12.20;9.30;;;;;;;9.23;91.72;102470.84;5026941;28;20021;-72
2022/11/13 09:53:47;;;;;;;14.75;9.68;;;;;;;9.32;91.80;102478.16;5047291;28;20064;-71
2022/11/13 09:56:33;;;;;;;15.15;9.85;;;;;;;9.43;91.09;102468.88;5031959;28;20102;-72
2022/11/13 09:59:01;;;;;;;15.50;9.88;;;;;;;9.57;89.31;102462.94;5032199;28;20399;-71
2022/11/13 10:01:40;;;;;;;11.38;9.02;;;;;;;9.65;90.41;102458.41;5046419;28;20036;-71
2022/11/13 10:04:10;;;;;;;15.30;9.45;;;;;;;9.80;88.91;102461.50;5042384;28;20029;-72
2022/11/13 10:07:04;;;;;;;12.60;9.20;;;;;;;9.97;87.09;102469.75;5037962;28;20140;-72
2022/11/13 10:10:17;;;;;;;12.18;9.23;;;;;;;10.11;87.71;102455.59;5027802;28;20030;-72
2022/11/13 10:12:45;;;;;;;12.63;9.13;;;;;;;10.20;86.80;102459.25;5039449;28;20112;-71
2022/11/13 10:15:11;;;;;;;12.45;9.00;;;;;;;10.27;86.73;102453.00;5024067;28;20029;-72
2022/11/13 10:17:45;;;;;;;14.30;8.90;;;;;;;10.48;85.28;102456.31;5041909;28;20039;-71
2022/11/13 10:20:14;;;;;;;11.07;8.70;;;;;;;10.49;85.22;102457.13;5043312;28;20132;-72
2022/11/13 10:22:53;;;;;;;14.02;8.95;;;;;;;10.61;85.23;102450.38;5042284;28;20021;-72
2022/11/13 10:25:21;;;;;;;15.48;9.15;;;;;;;10.72;83.88;102456.50;5044089;28;20449;-72
2022/11/13 10:27:57;;;;;;;12.77;8.52;;;;;;;10.87;82.91;102454.03;5042486;28;20024;-71
2022/11/13 10:30:22;;;;;;;12.88;8.57;;;;;;;10.94;84.67;102449.66;5046760;28;20040;-71
2022/11/13 10:32:49;;;;;;;14.67;8.90;;;;;;;11.07;81.72;102450.06;5044450;28;20037;-71
2022/11/13 10:35:44;;;;;;;11.45;9.20;;;;;;;11.16;82.40;102443.63;5045331;28;20452;-71
2022/11/13 10:38:18;;;;;;;12.57;9.27;;;;;;;11.20;82.63;102439.53;5046599;28;20060;-72
2022/11/13 10:40:43;;;;;;;13.30;9.57;;;;;;;11.29;82.80;102441.28;5043825;28;20068;-71
2022/11/13 10:43:18;;;;;;;13.07;8.20;;;;;;;11.41;80.66;102434.47;5042988;28;20534;-71
2022/11/13 10:45:55;;;;;;;12.65;8.93;;;;;;;11.48;81.25;102430.09;5043040;28;20155;-71
2022/11/13 10:48:35;;;;;;;11.82;9.43;;;;;;;11.39;80.82;102429.19;5044486;28;20457;-71
2022/11/13 10:51:05;;;;;;;12.02;9.10;;;;;;;11.50;81.21;102423.41;5044141;28;20062;-71
2022/11/13 10:53:40;;;;;;;12.48;8.82;;;;;;;11.50;80.85;102420.66;5042690;28;20112;-72
2022/11/13 10:56:24;;;;;;;10.63;8.50;;;;;;;11.57;79.60;102416.22;5022445;28;20028;-72
2022/11/13 10:59:14;;;;;;;9.82;8.52;;;;;;;11.67;79.53;102410.63;5044646;28;20021;-71
2022/11/13 11:01:41;;;;;;;12.55;8.93;;;;;;;11.82;80.03;102414.44;5045716;28;20039;-72
2022/11/13 11:04:12;;;;;;;10.60;8.52;;;;;;;11.96;79.03;102408.31;5046507;28;20411;-71
2022/11/13 11:06:39;;;;;;;12.90;8.75;;;;;;;12.02;78.53;102399.41;5042284;28;20028;-72
2022/11/13 11:09:27;;;;;;;11.88;8.10;;;;;;;12.09;78.63;102400.44;5041774;28;21324;-72
2022/11/13 11:12:19;;;;;;;12.45;8.10;;;;;;;12.26;78.03;102403.03;5043308;28;20040;-72
2022/11/13 11:14:59;;;;;;;11.48;8.48;;;;;;;12.46;76.21;102395.31;5025800;28;20490;-73